Time;durP1;ratioP1;P1;durP2;ratioP2;P2;SDS_P1;SDS_P2;PMS_P1;PMS_P2;Temp;Humidity;BMP_temperature;BMP_pressure;BME280_temperature;BME280_humidity;BME280_pressure;Samples;Min_cycle;Max_cycle;Signal;HPM_P1;HPM_P2
2022/03/12 00:00:20;;;;;;;17.60;11.80;;;1.60;1.00;;;1.50;36.94;102168.31;4954300;28;20592;-70
2022/03/12 00:02:50;;;;;;;19.00;11.88;;;1.60;1.00;;;1.44;37.10;102177.63;4954469;29;20181;-67
2022/03/12 00:05:20;;;;;;;26.10;12.38;;;1.60;1.00;;;1.41;37.57;102177.81;4953956;29;20275;-70
2022/03/12 00:07:51;;;;;;;17.58;10.10;;;1.50;1.00;;;1.39;37.12;102165.56;4956458;28;20612;-70
2022/03/12 00:10:22;;;;;;;22.27;12.43;;;1.50;1.00;;;1.34;37.34;102165.06;4958357;28;20706;-70
2022/03/12 00:12:53;;;;;;;16.42;12.70;;;1.50;1.00;;;1.31;37.64;102171.44;4958475;29;20176;-70
2022/03/12 00:15:24;;;;;;;15.57;9.70;;;1.40;1.00;;;1.28;37.58;102163.69;4958601;29;20196;-69
2022/03/12 00:17:53;;;;;;;19.48;12.65;;;1.40;1.00;;;1.30;37.65;102162.63;4962677;29;20381;-69
2022/03/12 00:20:26;;;;;;;19.40;12.18;;;1.40;1.00;;;1.18;37.57;102155.50;4966449;28;20204;-69
2022/03/12 00:22:56;;;;;;;18.83;12.82;;;1.30;1.00;;;1.22;37.68;102154.31;4966485;29;20267;-70
2022/03/12 00:25:26;;;;;;;19.35;11.60;;;1.30;1.00;;;1.26;37.90;102153.13;4949755;29;20337;-69
2022/03/12 00:27:55;;;;;;;18.30;11.70;;;1.30;1.00;;;1.19;38.16;102151.03;4966517;29;20223;-68
2022/03/12 00:30:26;;;;;;;23.33;13.85;;;1.30;1.00;;;1.17;37.74;102151.13;4967259;28;20216;-68
2022/03/12 00:32:56;;;;;;;17.30;11.70;;;1.30;1.00;;;1.13;37.96;102149.63;4959435;29;20258;-67
2022/03/12 00:35:25;;;;;;;14.27;10.70;;;1.20;1.00;;;1.08;38.22;102150.94;4958860;29;20189;-69
2022/03/12 00:37:54;;;;;;;19.85;12.95;;;1.20;1.00;;;1.05;38.19;102156.50;4957826;29;20259;-70
2022/03/12 00:40:23;;;;;;;15.55;10.88;;;1.20;1.00;;;1.09;38.43;102169.50;4957829;28;20703;-69
2022/03/12 00:42:52;;;;;;;21.70;13.20;;;1.20;1.00;;;1.05;38.33;102165.34;4958170;29;20682;-69
2022/03/12 00:45:21;;;;;;;17.25;11.90;;;1.20;1.00;;;1.04;38.63;102160.13;4957755;29;20196;-68
2022/03/12 00:47:51;;;;;;;22.02;13.05;;;1.20;1.00;;;1.03;38.54;102161.94;4950059;29;20188;-70
2022/03/12 00:50:21;;;;;;;17.38;11.80;;;1.10;1.00;;;0.94;38.38;102159.06;4957457;28;20292;-68
2022/03/12 00:52:51;;;;;;;18.50;11.57;;;1.10;1.00;;;0.89;39.24;102159.41;4950259;29;20294;-69
2022/03/12 00:55:20;;;;;;;20.95;12.18;;;1.00;1.00;;;0.87;39.14;102158.66;4940076;29;20251;-70
2022/03/12 00:57:49;;;;;;;17.05;12.35;;;1.00;1.00;;;0.76;39.51;102150.56;4957159;29;20201;-69
2022/03/12 01:00:22;;;;;;;19.63;12.65;;;0.90;1.00;;;0.70;39.60;102156.31;4957090;28;20223;-70
2022/03/12 01:02:53;;;;;;;19.27;11.70;;;0.90;1.00;;;0.71;39.74;102150.91;4957046;29;20176;-69
2022/03/12 01:05:43;;;;;;;21.40;12.52;;;0.80;1.00;;;0.60;39.40;102149.94;4940021;29;20197;-69
2022/03/12 01:08:12;;;;;;;16.65;12.77;;;0.80;1.00;;;0.65;39.92;102143.34;4957356;29;20192;-70
2022/03/12 01:10:41;;;;;;;17.98;12.75;;;0.80;1.00;;;0.66;39.96;102144.19;4956867;28;20223;-69
2022/03/12 01:13:12;;;;;;;18.10;10.30;;;0.70;1.00;;;0.58;40.11;102147.38;4957307;29;20179;-69
2022/03/12 01:15:41;;;;;;;17.85;11.32;;;0.70;1.00;;;0.40;40.42;102143.34;4956722;29;20381;-70
2022/03/12 01:18:15;;;;;;;18.52;11.95;;;0.60;1.00;;;0.37;40.82;102139.09;4955634;28;20208;-69
2022/03/12 01:20:44;;;;;;;23.95;13.88;;;0.60;1.00;;;0.48;40.60;102135.69;4956659;28;20219;-68
2022/03/12 01:23:17;;;;;;;18.02;11.35;;;0.60;1.00;;;0.41;40.48;102135.25;4957014;29;20212;-69
2022/03/12 01:25:48;;;;;;;18.17;10.90;;;0.60;1.00;;;0.35;40.51;102142.78;4956754;29;20184;-69
2022/03/12 01:28:20;;;;;;;18.60;11.70;;;0.50;1.00;;;0.27;41.11;102137.16;4957278;29;20204;-70
2022/03/12 01:30:50;;;;;;;16.65;10.82;;;0.50;1.00;;;0.34;40.72;102141.09;4962098;28;20238;-67
2022/03/12 01:33:20;;;;;;;15.48;9.63;;;0.40;1.00;;;0.19;40.91;102140.38;4960776;29;20591;-68
2022/03/12 01:35:49;;;;;;;18.40;11.88;;;0.40;1.00;;;0.17;40.80;102136.94;4957894;29;20184;-68
2022/03/12 01:38:18;;;;;;;20.80;12.13;;;0.30;1.00;;;0.10;41.19;102150.78;4956596;29;20259;-69
2022/03/12 01:40:47;;;;;;;21.02;12.00;;;0.30;1.00;;;0.13;41.48;102140.78;4948960;29;20706;-69
2022/03/12 01:43:16;;;;;;;20.05;10.25;;;0.30;1.00;;;0.04;41.26;102136.09;4957006;29;20176;-68
2022/03/12 01:45:45;;;;;;;25.60;12.25;;;0.20;1.00;;;0.02;41.94;102142.44;4956648;29;20181;-68
2022/03/12 01:48:14;;;;;;;16.13;12.10;;;0.20;1.00;;;-0.08;41.99;102131.56;4956515;29;20173;-69
2022/03/12 01:50:45;;;;;;;18.55;12.63;;;0.10;1.00;;;0.02;42.13;102131.81;4958021;28;20231;-70
2022/03/12 01:53:15;;;;;;;22.40;11.88;;;0.10;1.00;;;-0.01;41.92;102138.19;4958236;29;20251;-67
2022/03/12 01:55:44;;;;;;;21.27;12.00;;;0.10;1.00;;;-0.07;41.90;102130.63;4957926;29;20231;-68
2022/03/12 01:58:14;;;;;;;23.50;11.95;;;0.10;1.00;;;-0.02;41.04;102132.03;4957117;29;20216;-70
2022/03/12 02:00:46;;;;;;;18.98;11.52;;;0.10;1.00;;;0.10;41.16;102125.00;4956035;28;20216;-69
2022/03/12 02:03:26;;;;;;;21.02;11.43;;;0.20;1.00;;;0.10;41.73;102129.50;4956810;29;20212;-68
2022/03/12 02:05:57;;;;;;;22.98;13.57;;;0.20;1.00;;;0.03;41.26;102131.72;4956727;29;20180;-69
2022/03/12 02:08:29;;;;;;;21.60;12.52;;;0.20;1.00;;;-0.05;41.80;102126.88;4956345;29;20172;-69
2022/03/12 02:10:59;;;;;;;21.88;12.38;;;0.10;1.00;;;0.04;41.27;102119.25;4955472;28;20216;-70
2022/03/12 02:13:33;;;;;;;19.52;11.23;;;0.10;1.00;;;-0.07;41.66;102127.97;4956587;29;20267;-70
2022/03/12 02:16:08;;;;;;;13.02;10.18;;;0.10;1.00;;;-0.03;41.94;102118.81;4954797;29;20605;-69
2022/03/12 02:18:39;;;;;;;17.80;10.93;;;0.10;1.00;;;-0.07;41.47;102119.97;4956537;28;20199;-70
2022/03/12 02:21:09;;;;;;;15.75;12.25;;;0.10;1.00;;;-0.03;41.98;102118.81;4955787;29;20172;-69
2022/03/12 02:23:50;;;;;;;20.25;12.90;;;0.10;1.00;;;-0.02;41.77;102120.53;4956093;29;20169;-68
2022/03/12 02:26:19;;;;;;;19.27;11.50;;;0.10;1.00;;;-0.10;42.00;102123.69;4954871;29;20204;-69
2022/03/12 02:28:48;;;;;;;22.42;13.35;;;0.10;1.00;;;-0.02;41.56;102115.19;4956059;28;20184;-69
2022/03/12 02:31:17;;;;;;;17.60;12.55;;;0.10;1.00;;;-0.09;41.44;102113.91;4955974;28;20191;-69
2022/03/12 02:33:47;;;;;;;23.25;11.50;;;0.10;1.00;;;-0.10;42.10;102112.22;4956737;29;20196;-68
2022/03/12 02:36:27;;;;;;;18.40;11.13;;;0.00;1.00;;;-0.09;41.99;102103.25;4956482;29;20200;-70
2022/03/12 02:39:04;;;;;;;14.48;11.57;;;0.00;1.00;;;-0.10;41.58;102106.91;4957896;28;20219;-72
2022/03/12 02:41:34;;;;;;;20.60;12.15;;;0.00;1.00;;;-0.10;41.37;102104.22;4959532;29;20639;-71
2022/03/12 02:44:03;;;;;;;18.75;12.07;;;0.00;1.00;;;-0.13;41.90;102104.41;4959065;29;20614;-71
2022/03/12 02:46:35;;;;;;;20.55;11.80;;;0.00;1.00;;;-0.09;42.22;102108.56;4956640;29;20187;-69
2022/03/12 02:49:04;;;;;;;19.05;12.02;;;0.00;1.00;;;-0.18;41.41;102099.41;4956000;28;20255;-69
2022/03/12 02:51:35;;;;;;;22.00;12.43;;;0.00;1.00;;;-0.18;42.33;102110.06;4956016;29;20177;-72
2022/03/12 02:54:05;;;;;;;18.67;11.85;;;0.00;1.00;;;-0.16;41.74;102099.31;4956070;29;20209;-71
2022/03/12 02:56:35;;;;;;;17.77;11.77;;;0.00;1.00;;;-0.15;41.34;102109.00;4956285;29;20176;-70
2022/03/12 02:59:13;;;;;;;17.98;11.88;;;0.00;1.00;;;-0.23;41.53;102116.63;4956106;28;20625;-72
2022/03/12 03:01:44;;;;;;;22.33;12.93;;;0.00;1.00;;;-0.18;41.90;102109.19;4955998;29;20259;-71
2022/03/12 03:04:13;;;;;;;20.52;13.80;;;-0.10;1.00;;;-0.30;42.07;102110.91;4955782;29;20180;-70
2022/03/12 03:06:42;;;;;;;21.95;13.10;;;-0.10;1.00;;;-0.35;42.40;102104.16;4955277;29;20188;-70
2022/03/12 03:09:13;;;;;;;21.60;11.55;;;-0.10;1.00;;;-0.28;42.40;102108.09;4955275;28;20577;-72
2022/03/12 03:11:43;;;;;;;19.58;12.85;;;-0.10;1.00;;;-0.32;42.11;102111.94;4955038;29;20569;-71
2022/03/12 03:14:12;;;;;;;19.08;12.13;;;-0.10;1.00;;;-0.24;41.66;102105.13;4955241;29;20188;-70
2022/03/12 03:16:41;;;;;;;25.02;12.23;;;-0.10;1.00;;;-0.29;42.16;102101.94;4955147;29;20196;-70
2022/03/12 03:19:11;;;;;;;16.88;11.73;;;-0.10;1.00;;;-0.26;41.99;102106.22;4955310;28;20249;-71
2022/03/12 03:21:40;;;;;;;20.70;12.45;;;-0.10;1.00;;;-0.32;42.04;102106.63;4953800;29;20223;-72
2022/03/12 03:24:09;;;;;;;18.45;12.88;;;-0.20;1.00;;;-0.33;41.93;102104.91;4955230;29;20639;-71
2022/03/12 03:26:56;;;;;;;20.58;13.13;;;-0.20;1.00;;;-0.35;41.73;102096.19;4955613;29;20205;-70
2022/03/12 03:29:27;;;;;;;16.80;13.02;;;-0.20;1.00;;;-0.37;42.50;102108.72;4955411;28;20420;-71
2022/03/12 03:31:57;;;;;;;16.65;11.75;;;-0.20;1.00;;;-0.32;41.78;102117.25;4955005;29;20413;-70
2022/03/12 03:34:26;;;;;;;18.88;12.05;;;-0.20;1.00;;;-0.37;42.50;102112.25;4955546;29;20173;-71
2022/03/12 03:36:55;;;;;;;22.42;11.98;;;-0.20;1.00;;;-0.32;42.15;102111.94;4955825;29;20180;-71
2022/03/12 03:39:24;;;;;;;17.30;11.77;;;-0.20;1.00;;;-0.33;42.04;102111.06;4955570;28;20722;-70
2022/03/12 03:41:55;;;;;;;21.65;12.65;;;-0.20;1.00;;;-0.37;42.27;102108.72;4960295;29;20172;-70
2022/03/12 03:44:29;;;;;;;17.92;11.82;;;-0.20;1.00;;;-0.46;42.51;102105.75;4966225;29;20200;-69
2022/03/12 03:46:59;;;;;;;26.67;13.98;;;-0.30;1.00;;;-0.44;41.94;102102.97;4967574;29;20190;-70
2022/03/12 03:49:27;;;;;;;33.05;15.98;;;-0.30;1.00;;;-0.50;42.39;102109.56;4963492;28;20215;-70
2022/03/12 03:51:58;;;;;;;19.52;12.40;;;-0.30;1.00;;;-0.50;42.07;102106.03;4955283;29;20176;-71
2022/03/12 03:54:29;;;;;;;24.35;13.40;;;-0.40;1.00;;;-0.45;41.90;102112.78;4955364;29;20191;-70
2022/03/12 03:57:00;;;;;;;20.83;12.07;;;-0.30;1.00;;;-0.53;42.62;102111.53;4955524;29;20180;-70
2022/03/12 03:59:29;;;;;;;18.52;13.55;;;-0.40;1.00;;;-0.53;42.14;102100.91;4957810;28;20300;-71
2022/03/12 04:01:58;;;;;;;19.23;10.70;;;-0.40;1.00;;;-0.54;42.26;102104.53;4964303;29;20195;-70
2022/03/12 04:04:28;;;;;;;21.35;12.25;;;-0.40;1.00;;;-0.62;42.28;102105.03;4959835;29;20588;-70
2022/03/12 04:06:58;;;;;;;19.58;11.82;;;-0.40;1.00;;;-0.71;43.04;102102.13;4963899;29;20176;-70
2022/03/12 04:09:27;;;;;;;21.80;12.20;;;-0.50;1.00;;;-0.65;42.07;102091.94;4964688;28;20233;-70
2022/03/12 04:11:56;;;;;;;19.65;12.50;;;-0.50;1.00;;;-0.61;42.71;102101.44;4960679;29;20216;-71
2022/03/12 04:14:30;;;;;;;24.23;13.82;;;-0.50;1.00;;;-0.63;42.18;102095.34;4955691;29;20188;-71
2022/03/12 04:16:59;;;;;;;23.30;12.48;;;-0.50;1.00;;;-0.55;42.01;102100.19;4954910;29;20191;-71
2022/03/12 04:19:29;;;;;;;22.10;12.30;;;-0.50;1.00;;;-0.71;42.98;102105.63;4954802;28;20725;-71
2022/03/12 04:21:58;;;;;;;19.02;10.95;;;-0.50;1.00;;;-0.72;42.64;102095.94;4954486;29;20546;-69
2022/03/12 04:24:28;;;;;;;21.95;12.40;;;-0.50;1.00;;;-0.75;42.79;102104.13;4954865;29;20184;-71
2022/03/12 04:26:57;;;;;;;19.95;13.15;;;-0.60;1.00;;;-0.69;43.13;102093.13;4954973;29;20207;-70
2022/03/12 04:29:26;;;;;;;18.38;13.25;;;-0.50;1.00;;;-0.77;43.05;102099.84;4954879;28;20714;-70
2022/03/12 04:31:56;;;;;;;20.15;11.95;;;-0.60;1.00;;;-0.81;43.25;102098.34;4954515;29;20199;-71
2022/03/12 04:34:25;;;;;;;19.33;11.05;;;-0.60;1.00;;;-0.82;42.69;102097.50;4954687;29;20199;-70
2022/03/12 04:36:54;;;;;;;20.40;12.48;;;-0.60;1.00;;;-0.76;42.49;102102.44;4954535;29;20255;-70
2022/03/12 04:39:23;;;;;;;19.83;12.38;;;-0.60;1.00;;;-0.82;43.49;102108.13;4954494;28;20205;-69
2022/03/12 04:41:52;;;;;;;18.42;12.02;;;-0.60;1.00;;;-0.83;43.30;102097.63;4954468;29;20173;-72
2022/03/12 04:44:22;;;;;;;19.23;12.48;;;-0.60;1.00;;;-0.82;42.53;102102.81;4954721;29;20243;-70
2022/03/12 04:46:51;;;;;;;19.00;10.52;;;-0.70;1.00;;;-0.78;42.96;102104.34;4937805;29;20457;-71
2022/03/12 04:49:22;;;;;;;24.70;13.48;;;-0.60;1.00;;;-0.79;42.96;102102.63;4955911;28;20263;-70
2022/03/12 04:51:52;;;;;;;22.40;13.65;;;-0.60;1.00;;;-0.77;43.38;102106.03;4958147;29;20755;-71
2022/03/12 04:54:21;;;;;;;18.63;13.15;;;-0.60;1.00;;;-0.80;43.13;102106.25;4960892;28;20177;-71
2022/03/12 04:56:50;;;;;;;21.70;11.85;;;-0.60;1.00;;;-0.74;42.90;102105.84;4959997;29;20554;-71
2022/03/12 04:59:19;;;;;;;19.05;11.40;;;-0.60;1.00;;;-0.79;42.97;102102.63;4941315;29;20216;-71
2022/03/12 05:01:48;;;;;;;23.50;13.32;;;-0.60;1.00;;;-0.64;42.58;102104.31;4958619;29;20180;-71
2022/03/12 05:04:18;;;;;;;19.85;12.35;;;-0.50;1.00;;;-0.65;42.55;102101.72;4957979;29;20185;-71
2022/03/12 05:06:48;;;;;;;21.60;13.48;;;-0.50;1.00;;;-0.71;42.84;102104.78;4957749;29;20176;-71
2022/03/12 05:09:18;;;;;;;25.02;15.43;;;-0.60;1.00;;;-0.69;42.88;102108.22;4957826;28;20574;-71
2022/03/12 05:11:50;;;;;;;17.98;12.50;;;-0.50;1.00;;;-0.75;43.44;102100.63;4958293;29;20168;-70
2022/03/12 05:14:19;;;;;;;23.00;12.27;;;-0.50;1.00;;;-0.76;42.86;102096.25;4957751;29;20187;-72
2022/03/12 05:16:48;;;;;;;23.20;12.88;;;-0.60;1.00;;;-0.72;43.39;102095.94;4957805;29;20196;-70
2022/03/12 05:19:17;;;;;;;28.17;14.02;;;-0.60;1.00;;;-0.78;42.89;102101.69;4957685;28;20231;-69
2022/03/12 05:21:48;;;;;;;20.83;11.90;;;-0.60;1.00;;;-0.90;43.20;102106.00;4957675;29;20215;-72
2022/03/12 05:24:17;;;;;;;19.58;12.90;;;-0.60;1.00;;;-0.84;43.10;102110.06;4957617;29;20235;-71
2022/03/12 05:26:46;;;;;;;22.23;13.35;;;-0.60;1.00;;;-0.90;43.29;102111.31;4940945;29;20223;-70
2022/03/12 05:29:18;;;;;;;22.52;12.18;;;-0.70;1.00;;;-0.93;43.37;102122.13;4957491;28;20299;-70
2022/03/12 05:31:47;;;;;;;20.30;13.70;;;-0.70;1.00;;;-0.92;43.95;102115.03;4957529;29;20169;-70
2022/03/12 05:34:17;;;;;;;19.92;13.13;;;-0.70;1.00;;;-0.85;43.07;102123.44;4957468;29;20186;-70
2022/03/12 05:36:47;;;;;;;23.15;15.98;;;-0.70;1.00;;;-0.82;43.10;102125.91;4957186;29;20191;-71
2022/03/12 05:39:16;;;;;;;20.15;12.73;;;-0.60;1.00;;;-0.78;43.61;102114.13;4957268;28;20204;-70
2022/03/12 05:41:48;;;;;;;21.05;13.68;;;-0.60;1.00;;;-0.76;43.51;102123.69;4949591;29;20196;-71
2022/03/12 05:44:17;;;;;;;23.67;13.65;;;-0.60;1.00;;;-0.73;43.56;102122.66;4957122;29;20538;-70
2022/03/12 05:46:46;;;;;;;23.63;15.23;;;-0.60;1.00;;;-0.79;42.95;102121.25;4957222;29;20204;-70
2022/03/12 05:49:15;;;;;;;24.65;15.07;;;-0.60;1.00;;;-0.78;43.36;102133.59;4957436;28;20738;-71
2022/03/12 05:51:44;;;;;;;23.50;13.45;;;-0.60;1.00;;;-0.78;43.60;102130.94;4957420;29;20184;-71
2022/03/12 05:54:15;;;;;;;22.20;14.75;;;-0.60;1.00;;;-0.75;43.21;102129.88;4958165;29;20529;-70
2022/03/12 05:56:44;;;;;;;18.27;13.95;;;-0.60;1.00;;;-0.66;43.27;102134.59;4958946;29;20187;-70
2022/03/12 05:59:13;;;;;;;20.35;12.95;;;-0.50;1.00;;;-0.59;42.81;102136.75;4958541;28;20267;-70
2022/03/12 06:01:42;;;;;;;21.60;14.63;;;-0.50;1.00;;;-0.56;43.21;102135.69;4959653;29;20541;-70
2022/03/12 06:04:12;;;;;;;20.10;13.77;;;-0.50;1.00;;;-0.56;42.77;102146.31;4958556;28;20207;-71
2022/03/12 06:06:46;;;;;;;26.00;13.68;;;-0.40;1.00;;;-0.62;42.69;102141.41;4959426;29;20556;-70
2022/03/12 06:09:16;;;;;;;21.75;13.20;;;-0.40;1.00;;;-0.47;42.51;102140.41;4960278;28;20222;-71
2022/03/12 06:11:45;;;;;;;21.60;13.48;;;-0.40;1.00;;;-0.38;42.76;102144.25;4963375;29;20546;-69
2022/03/12 06:14:15;;;;;;;20.38;11.75;;;-0.30;1.00;;;-0.33;42.85;102132.34;4962514;29;20240;-70
2022/03/12 06:16:48;;;;;;;27.13;14.07;;;-0.30;1.00;;;-0.26;42.48;102146.97;4962134;29;20177;-69
2022/03/12 06:19:19;;;;;;;19.33;14.73;;;-0.20;1.00;;;-0.28;42.58;102146.22;4944580;29;20212;-71
2022/03/12 06:21:49;;;;;;;23.23;13.90;;;-0.20;1.00;;;-0.24;42.27;102147.69;4959758;29;20204;-70
2022/03/12 06:24:20;;;;;;;21.45;13.25;;;-0.20;1.00;;;-0.18;42.35;102151.78;4957910;29;20223;-69
2022/03/12 06:26:49;;;;;;;19.85;13.52;;;-0.10;1.00;;;-0.10;42.50;102146.81;4957189;29;20191;-70
2022/03/12 06:29:18;;;;;;;22.15;13.20;;;-0.10;1.00;;;-0.05;42.09;102150.00;4956536;28;20239;-69
2022/03/12 06:31:47;;;;;;;25.17;14.05;;;0.00;1.00;;;0.02;41.52;102143.31;4956542;29;20172;-70
2022/03/12 06:34:16;;;;;;;25.65;14.65;;;0.10;1.00;;;0.12;41.91;102138.22;4939641;29;20383;-71
2022/03/12 06:36:45;;;;;;;25.30;13.85;;;0.20;1.00;;;0.15;41.98;102148.63;4956338;29;20192;-70
2022/03/12 06:39:14;;;;;;;20.40;14.18;;;0.20;1.00;;;0.18;41.95;102145.78;4956656;28;20717;-71
2022/03/12 06:41:45;;;;;;;19.20;13.60;;;0.30;1.00;;;0.29;41.58;102146.72;4956288;29;20196;-71
2022/03/12 06:44:16;;;;;;;26.73;14.15;;;0.30;1.00;;;0.34;41.07;102141.94;4956874;29;20180;-70
2022/03/12 06:46:45;;;;;;;23.30;14.18;;;0.40;1.00;;;0.43;41.23;102143.13;4939467;29;20196;-69
2022/03/12 06:49:14;;;;;;;22.88;14.73;;;0.50;1.00;;;0.54;41.20;102140.56;4956199;28;20208;-71
2022/03/12 06:51:43;;;;;;;25.33;13.30;;;0.50;1.00;;;0.62;40.94;102146.22;4956762;29;20188;-72
2022/03/12 06:54:12;;;;;;;19.40;12.60;;;0.60;1.00;;;0.75;40.44;102155.06;4956397;29;20232;-71
2022/03/12 06:56:41;;;;;;;22.33;14.60;;;0.70;1.00;;;0.71;40.87;102147.38;4956547;29;20199;-70
2022/03/12 06:59:11;;;;;;;19.75;11.50;;;0.80;1.00;;;0.86;40.00;102148.97;4957419;28;20227;-72
2022/03/12 07:01:41;;;;;;;27.38;16.73;;;0.80;1.00;;;0.98;40.05;102148.06;4956898;29;20196;-71
2022/03/12 07:04:10;;;;;;;24.17;12.98;;;1.00;1.00;;;0.98;40.28;102153.41;4956650;29;20180;-69
2022/03/12 07:06:40;;;;;;;26.15;13.40;;;1.00;1.00;;;1.13;40.26;102146.97;4956670;29;20185;-70
2022/03/12 07:09:09;;;;;;;19.33;14.77;;;1.10;1.00;;;1.28;39.98;102153.88;4956309;28;20218;-72
2022/03/12 07:11:38;;;;;;;20.73;13.50;;;1.20;1.00;;;1.36;39.53;102153.28;4955907;29;20188;-70
2022/03/12 07:14:07;;;;;;;19.02;12.30;;;1.30;1.00;;;1.41;39.27;102163.63;4956695;29;20208;-73
2022/03/12 07:16:38;;;;;;;23.48;13.13;;;1.40;1.00;;;1.45;38.95;102165.13;4956266;28;20181;-72
2022/03/12 07:19:07;;;;;;;26.08;14.05;;;1.40;1.00;;;1.64;38.91;102149.47;4956529;28;20212;-71
2022/03/12 07:21:37;;;;;;;20.17;12.88;;;1.60;1.00;;;1.77;38.66;102155.59;4956579;29;20201;-70
2022/03/12 07:24:06;;;;;;;21.15;14.05;;;1.70;1.00;;;1.90;38.67;102159.03;4954697;29;20224;-72
2022/03/12 07:26:35;;;;;;;29.08;13.85;;;1.80;1.00;;;1.96;38.14;102155.03;4955430;29;20192;-70
2022/03/12 07:29:04;;;;;;;20.80;11.90;;;1.90;1.00;;;2.00;38.22;102162.72;4955649;28;20232;-71
2022/03/12 07:31:37;;;;;;;21.10;13.80;;;2.00;1.00;;;2.15;38.22;102174.91;4955012;29;20172;-70
2022/03/12 07:34:08;;;;;;;21.75;12.73;;;2.10;1.00;;;2.27;37.82;102169.59;4955206;29;20203;-72
2022/03/12 07:36:37;;;;;;;18.23;13.93;;;2.20;1.00;;;2.42;37.45;102163.91;4955171;29;20559;-71
2022/03/12 07:39:06;;;;;;;25.73;13.02;;;2.30;1.00;;;2.29;37.41;102162.28;4954908;28;20657;-70
2022/03/12 07:41:35;;;;;;;19.92;13.32;;;2.30;1.00;;;2.36;37.49;102174.22;4955007;29;20675;-71
2022/03/12 07:44:05;;;;;;;18.88;13.45;;;2.30;1.00;;;2.47;37.37;102167.06;4955727;29;20678;-71
2022/03/12 07:46:34;;;;;;;20.65;14.07;;;2.40;1.00;;;2.71;36.73;102158.13;4956316;29;20183;-71
2022/03/12 07:49:10;;;;;;;22.33;15.20;;;2.60;1.00;;;2.73;36.59;102162.38;4955796;28;20228;-71
2022/03/12 07:51:43;;;;;;;22.50;13.57;;;2.70;1.00;;;2.80;36.71;102158.25;4939742;29;20182;-72
2022/03/12 07:54:14;;;;;;;21.75;12.60;;;2.70;1.00;;;2.91;36.32;102157.38;4956520;29;20168;-72
2022/03/12 07:56:44;;;;;;;22.27;12.85;;;2.90;1.00;;;2.98;35.94;102159.47;4955105;29;20202;-70
2022/03/12 07:59:13;;;;;;;19.67;11.70;;;2.90;1.00;;;3.14;35.88;102156.41;4954654;28;20242;-72
2022/03/12 08:01:43;;;;;;;28.63;15.20;;;3.00;1.00;;;3.28;35.50;102148.13;4954947;29;20227;-71
2022/03/12 08:04:12;;;;;;;22.45;12.93;;;3.20;1.00;;;3.45;35.40;102162.78;4955781;29;20176;-70
2022/03/12 08:06:43;;;;;;;21.67;12.18;;;3.30;1.00;;;3.60;35.05;102161.53;4955122;29;20196;-70
2022/03/12 08:09:13;;;;;;;15.75;11.95;;;3.40;1.00;;;3.72;34.50;102160.53;4955481;28;20208;-69
2022/03/12 08:11:41;;;;;;;16.58;11.10;;;3.60;1.00;;;3.84;34.63;102161.31;4954625;28;20573;-71
2022/03/12 08:14:14;;;;;;;16.20;11.93;;;3.70;1.00;;;4.00;34.14;102158.22;4955106;29;20184;-69
2022/03/12 08:16:47;;;;;;;22.15;13.02;;;3.80;1.00;;;4.20;34.00;102158.25;4954925;29;20718;-71
2022/03/12 08:19:17;;;;;;;16.58;10.68;;;4.10;1.00;;;4.33;33.78;102163.41;4954725;28;20601;-69
2022/03/12 08:21:50;;;;;;;20.30;12.98;;;4.20;1.00;;;4.44;33.04;102159.81;4954305;29;20611;-70
2022/03/12 08:24:21;;;;;;;18.75;12.98;;;4.30;1.00;;;4.29;32.89;102152.09;4954839;29;20271;-71
2022/03/12 08:26:51;;;;;;;17.00;11.30;;;4.20;1.00;;;4.37;32.54;102165.69;4954358;29;20540;-72
2022/03/12 08:29:20;;;;;;;20.10;11.48;;;4.30;1.00;;;4.63;32.41;102168.81;4957362;28;20234;-71
2022/03/12 08:31:49;;;;;;;16.50;11.00;;;4.50;1.00;;;4.75;32.60;102153.47;4957639;29;20185;-70
2022/03/12 08:34:19;;;;;;;16.15;11.25;;;4.60;1.00;;;4.99;31.79;102161.19;4957700;29;20194;-71
2022/03/12 08:36:50;;;;;;;16.10;11.10;;;4.80;1.00;;;5.10;30.82;102158.44;4957903;29;20184;-71
2022/03/12 08:39:19;;;;;;;14.70;10.65;;;4.90;1.00;;;5.25;30.81;102159.75;4957687;28;20200;-71
2022/03/12 08:41:49;;;;;;;16.38;10.88;;;5.00;1.00;;;5.24;30.53;102168.78;4957371;29;20204;-70
2022/03/12 08:44:18;;;;;;;20.55;12.48;;;5.10;1.00;;;5.37;30.58;102164.03;4956135;28;20196;-72
2022/03/12 08:46:47;;;;;;;16.67;10.40;;;5.20;1.00;;;5.50;29.87;102164.63;4957617;29;20721;-71
2022/03/12 08:49:19;;;;;;;20.30;11.23;;;5.30;1.00;;;5.49;30.19;102149.50;4957864;28;20250;-72
2022/03/12 08:51:50;;;;;;;19.30;10.82;;;5.30;1.00;;;5.61;29.54;102158.28;4957373;29;20742;-70
2022/03/12 08:54:19;;;;;;;19.45;9.50;;;5.40;1.00;;;5.75;29.68;102154.34;4957253;29;20542;-72
2022/03/12 08:56:48;;;;;;;18.70;10.70;;;5.60;1.00;;;5.79;28.95;102156.59;4957896;29;20523;-71
2022/03/12 08:59:17;;;;;;;16.35;10.65;;;5.60;1.00;;;5.94;29.04;102151.69;4957367;28;20212;-70
2022/03/12 09:01:47;;;;;;;15.55;10.98;;;5.80;1.00;;;6.12;28.74;102147.28;4957261;29;20640;-69
2022/03/12 09:04:17;;;;;;;13.98;9.70;;;5.90;1.00;;;6.45;28.81;102154.88;4957394;29;20180;-71
2022/03/12 09:06:48;;;;;;;13.73;10.40;;;6.20;1.00;;;6.44;28.17;102152.31;4957241;29;20612;-70
2022/03/12 09:09:22;;;;;;;15.38;9.43;;;6.30;1.00;;;6.33;28.42;102156.03;4956909;28;20480;-73
2022/03/12 09:11:51;;;;;;;13.90;10.50;;;6.20;1.00;;;6.30;27.99;102156.31;4957136;29;20211;-70
2022/03/12 09:14:21;;;;;;;17.50;10.90;;;6.20;1.00;;;6.33;27.87;102149.81;4956828;29;20188;-70
2022/03/12 09:16:50;;;;;;;14.77;9.25;;;6.20;1.00;;;6.20;27.52;102154.63;4957148;29;20188;-73
2022/03/12 09:19:19;;;;;;;16.25;11.98;;;6.10;1.00;;;6.46;27.89;102147.66;4957429;28;20335;-70
2022/03/12 09:21:49;;;;;;;15.68;11.38;;;6.30;1.00;;;6.58;27.77;102154.59;4958009;29;20200;-70
2022/03/12 09:24:19;;;;;;;18.83;10.52;;;6.40;1.00;;;6.48;27.98;102143.84;4940069;29;20287;-71
2022/03/12 09:26:48;;;;;;;14.02;8.55;;;6.40;1.00;;;6.69;27.55;102142.78;4955200;29;20258;-71
2022/03/12 09:29:17;;;;;;;16.63;11.15;;;6.50;1.00;;;7.04;27.36;102151.00;4956628;28;20219;-71
2022/03/12 09:31:46;;;;;;;12.00;9.60;;;6.70;1.00;;;7.18;26.83;102153.19;4939398;29;20231;-73
2022/03/12 09:34:15;;;;;;;14.15;8.77;;;6.90;1.00;;;7.13;26.67;102144.72;4956636;29;20181;-75
2022/03/12 09:36:44;;;;;;;14.68;10.40;;;7.00;1.00;;;7.29;26.48;102134.16;4956549;29;20195;-75
2022/03/12 09:39:15;;;;;;;14.10;9.07;;;7.10;1.00;;;7.35;26.15;102135.41;4955664;28;20219;-74
2022/03/12 09:41:44;;;;;;;12.80;9.60;;;7.10;1.00;;;7.44;26.54;102142.56;4948810;29;20165;-74
2022/03/12 09:44:15;;;;;;;14.40;10.52;;;7.20;1.00;;;7.25;26.67;102131.91;4956668;29;20212;-75
2022/03/12 09:46:44;;;;;;;10.43;8.30;;;7.20;1.00;;;7.15;25.58;102126.59;4957021;29;20192;-74
2022/03/12 09:49:14;;;;;;;12.20;9.13;;;7.10;1.00;;;7.39;25.75;102126.88;4957696;28;20212;-75
2022/03/12 09:51:44;;;;;;;12.90;10.70;;;7.20;1.00;;;7.75;25.87;102125.03;4959147;29;20188;-74
2022/03/12 09:54:18;;;;;;;15.75;10.15;;;7.40;1.00;;;7.84;25.64;102131.38;4968731;28;20202;-75
2022/03/12 09:56:47;;;;;;;16.60;9.45;;;7.50;1.00;;;7.83;25.30;102126.97;4968400;29;20180;-73
2022/03/12 09:59:16;;;;;;;10.40;7.32;;;7.60;1.00;;;7.94;24.86;102118.63;4958788;28;20271;-73
2022/03/12 10:01:44;;;;;;;10.45;7.25;;;7.70;1.00;;;8.14;24.70;102120.16;4957277;29;20192;-72
2022/03/12 10:04:14;;;;;;;17.52;9.18;;;7.90;1.00;;;8.35;24.06;102117.13;4956086;29;20204;-74
2022/03/12 10:06:44;;;;;;;12.18;8.50;;;8.00;1.00;;;8.45;24.68;102106.25;4957029;29;20574;-73
2022/03/12 10:09:14;;;;;;;11.88;8.18;;;8.20;1.00;;;8.42;24.19;102095.78;4956894;28;20212;-73
2022/03/12 10:11:45;;;;;;;10.57;7.80;;;8.20;1.00;;;8.03;24.61;102108.78;4957813;29;20239;-75
2022/03/12 10:14:14;;;;;;;10.52;8.38;;;7.90;1.00;;;8.11;24.56;102096.19;4978376;28;20214;-73
2022/03/12 10:16:43;;;;;;;11.93;8.70;;;7.90;1.00;;;8.44;24.39;102091.91;4989007;28;20616;-72
2022/03/12 10:19:12;;;;;;;11.45;7.97;;;8.10;1.00;;;8.25;24.00;102095.63;4988732;28;20219;-73
2022/03/12 10:21:45;;;;;;;13.73;7.53;;;8.10;1.00;;;8.32;24.08;102092.34;4986268;28;20391;-71
2022/03/12 10:24:16;;;;;;;11.40;7.95;;;8.10;1.00;;;8.43;23.80;102094.75;4975492;28;20614;-74
2022/03/12 10:26:46;;;;;;;9.80;8.02;;;8.20;1.00;;;8.42;23.67;102095.78;4966810;28;20183;-71